CES2812 ZBAD-ZSNJ
Flight info
| Callsign | CES2812 |
|---|---|
| Flight time | N/A |
| Altitude | 29100 |
| Route | ELKUR4K ELKUR W40 YQG W142 DALIM A593 DPX A470 OF OF71F |
| Aircraft | A321/M-SDE3FGHIRWY/LB1 |
Departure
| Time | 2026-04-14 21:04 |
|---|---|
| Airport | Beijing Daxing International Airport (ZBAD) |
Arrival
| Time | N/A |
|---|---|
| Airport | Nanjing Lukou International Airport (ZSNJ) |
| Time | Latitude | Longitude | Altitude | Speed | Heading |
|---|---|---|---|---|---|
| 2026-04-14 20:51 | 39.50924 | 116.41694 | 91 ft | 0 kts | 185° |
| 2026-04-14 20:51 | 39.50936 | 116.41695 | 91 ft | 2 kts | 185° |
| 2026-04-14 20:52 | 39.50951 | 116.41698 | 91 ft | 2 kts | 185° |
| 2026-04-14 20:52 | 39.50966 | 116.41699 | 91 ft | 2 kts | 185° |
| 2026-04-14 20:52 | 39.50976 | 116.41701 | 91 ft | 1 kts | 185° |
| 2026-04-14 20:52 | 39.50991 | 116.41699 | 91 ft | 2 kts | 158° |
| 2026-04-14 20:53 | 39.51004 | 116.41689 | 91 ft | 2 kts | 136° |
| 2026-04-14 20:53 | 39.51013 | 116.41674 | 91 ft | 2 kts | 114° |
| 2026-04-14 20:53 | 39.51016 | 116.41662 | 91 ft | 0 kts | 99° |
| 2026-04-14 20:53 | 39.51017 | 116.41653 | 91 ft | 0 kts | 96° |
| 2026-04-14 20:55 | 39.51016 | 116.41658 | 91 ft | 1 kts | 97° |
| 2026-04-14 20:56 | 39.51014 | 116.41685 | 91 ft | 4 kts | 97° |
| 2026-04-14 20:56 | 39.51008 | 116.41740 | 91 ft | 7 kts | 97° |
| 2026-04-14 20:56 | 39.51009 | 116.41821 | 91 ft | 10 kts | 83° |
| 2026-04-14 20:56 | 39.51018 | 116.41924 | 91 ft | 12 kts | 83° |
| 2026-04-14 20:57 | 39.51030 | 116.42039 | 91 ft | 13 kts | 83° |
| 2026-04-14 20:57 | 39.51047 | 116.42154 | 91 ft | 12 kts | 51° |
| 2026-04-14 20:57 | 39.51134 | 116.42165 | 91 ft | 13 kts | 353° |
| 2026-04-14 20:57 | 39.51227 | 116.42151 | 91 ft | 13 kts | 352° |
| 2026-04-14 20:58 | 39.51322 | 116.42136 | 91 ft | 13 kts | 353° |
| 2026-04-14 20:58 | 39.51369 | 116.42129 | 91 ft | 6 kts | 354° |
| 2026-04-14 20:58 | 39.51407 | 116.42151 | 91 ft | 6 kts | 62° |
| 2026-04-14 20:58 | 39.51417 | 116.42214 | 91 ft | 7 kts | 82° |
| 2026-04-14 20:59 | 39.51424 | 116.42289 | 91 ft | 9 kts | 82° |
| 2026-04-14 20:59 | 39.51433 | 116.42378 | 91 ft | 10 kts | 82° |
| 2026-04-14 20:59 | 39.51443 | 116.42484 | 91 ft | 12 kts | 83° |
| 2026-04-14 20:59 | 39.51454 | 116.42601 | 91 ft | 13 kts | 83° |
| 2026-04-14 21:00 | 39.51466 | 116.42731 | 91 ft | 15 kts | 83° |
| 2026-04-14 21:00 | 39.51479 | 116.42868 | 91 ft | 15 kts | 82° |
| 2026-04-14 21:00 | 39.51492 | 116.43002 | 91 ft | 8 kts | 83° |
| 2026-04-14 21:00 | 39.51498 | 116.43059 | 91 ft | 5 kts | 79° |
| 2026-04-14 21:01 | 39.51526 | 116.43094 | 91 ft | 6 kts | 16° |
| 2026-04-14 21:01 | 39.51549 | 116.43102 | 91 ft | 0 kts | 14° |
| 2026-04-14 21:02 | 39.51554 | 116.43103 | 91 ft | 1 kts | 14° |
| 2026-04-14 21:02 | 39.51575 | 116.43110 | 91 ft | 4 kts | 14° |
| 2026-04-14 21:02 | 39.51609 | 116.43130 | 91 ft | 6 kts | 39° |
| 2026-04-14 21:02 | 39.51640 | 116.43175 | 91 ft | 7 kts | 58° |
| 2026-04-14 21:03 | 39.51648 | 116.43241 | 91 ft | 8 kts | 102° |
| 2026-04-14 21:03 | 39.51634 | 116.43320 | 91 ft | 12 kts | 102° |
| 2026-04-14 21:03 | 39.51574 | 116.43660 | 91 ft | 75 kts | 103° |
| 2026-04-14 21:03 | 39.51400 | 116.44623 | 91 ft | 140 kts | 102° |
| 2026-04-14 21:04 | 39.51151 | 116.46018 | 322 ft | 170 kts | 102° |
| 2026-04-14 21:04 | 39.50883 | 116.47510 | 989 ft | 171 kts | 102° |
| 2026-04-14 21:04 | 39.50613 | 116.49000 | 1665 ft | 174 kts | 102° |
| 2026-04-14 21:04 | 39.50346 | 116.50495 | 2389 ft | 173 kts | 103° |
| 2026-04-14 21:05 | 39.50079 | 116.52005 | 3025 ft | 174 kts | 104° |
| 2026-04-14 21:05 | 39.49800 | 116.53554 | 3539 ft | 180 kts | 104° |
| 2026-04-14 21:05 | 39.49506 | 116.55176 | 3819 ft | 194 kts | 104° |
| 2026-04-14 21:05 | 39.49179 | 116.56977 | 3908 ft | 219 kts | 104° |
| 2026-04-14 21:06 | 39.48806 | 116.59029 | 3839 ft | 248 kts | 104° |
| 2026-04-14 21:06 | 39.48394 | 116.61311 | 3873 ft | 265 kts | 104° |
| 2026-04-14 21:06 | 39.47979 | 116.63635 | 3888 ft | 269 kts | 103° |
| 2026-04-14 21:06 | 39.47533 | 116.65965 | 3883 ft | 268 kts | 115° |
| 2026-04-14 21:07 | 39.46389 | 116.67819 | 3886 ft | 263 kts | 145° |
| 2026-04-14 21:07 | 39.44860 | 116.69088 | 3897 ft | 264 kts | 150° |
| 2026-04-14 21:07 | 39.43283 | 116.70331 | 3893 ft | 264 kts | 150° |